RYR99WT EGSS-EKCH
Flight info
| Callsign | RYR99WT |
|---|---|
| Flight time | 1h 30m |
| Altitude | 39000 |
| Route | CLN P44 SOMVA DCT MAVAS DCT ANDIK DCT BEDUM DCT JUIST DCT DOSUR P729 TUDLO |
| Aircraft | B38M/M-SDE1FGHILORVWXY/HB1 |
Departure
| Time | 2026-04-23 00:09 |
|---|---|
| Airport | London Stansted Airport (EGSS) |
Arrival
| Time | 2026-04-23 01:40 |
|---|---|
| Airport | Copenhagen Kastrup Airport (EKCH) |
| Time | Latitude | Longitude | Altitude | Speed | Heading |
|---|---|---|---|---|---|
| 2026-04-23 00:04 | 51.88513 | 0.23985 | 351 ft | 20 kts | 226° |
| 2026-04-23 00:04 | 51.88405 | 0.23821 | 351 ft | 22 kts | 223° |
| 2026-04-23 00:05 | 51.88297 | 0.23660 | 354 ft | 12 kts | 223° |
| 2026-04-23 00:05 | 51.88229 | 0.23558 | 359 ft | 14 kts | 223° |
| 2026-04-23 00:05 | 51.88149 | 0.23439 | 357 ft | 17 kts | 223° |
| 2026-04-23 00:05 | 51.88059 | 0.23304 | 351 ft | 19 kts | 223° |
| 2026-04-23 00:06 | 51.87958 | 0.23152 | 361 ft | 21 kts | 223° |
| 2026-04-23 00:06 | 51.87847 | 0.22986 | 353 ft | 23 kts | 222° |
| 2026-04-23 00:06 | 51.87749 | 0.22841 | 358 ft | 18 kts | 223° |
| 2026-04-23 00:06 | 51.87651 | 0.22693 | 354 ft | 20 kts | 223° |
| 2026-04-23 00:07 | 51.87542 | 0.22530 | 355 ft | 21 kts | 223° |
| 2026-04-23 00:07 | 51.87506 | 0.22469 | 354 ft | 3 kts | 250° |
| 2026-04-23 00:07 | 51.87519 | 0.22428 | 348 ft | 6 kts | 311° |
| 2026-04-23 00:07 | 51.87550 | 0.22371 | 355 ft | 4 kts | 314° |
| 2026-04-23 00:08 | 51.87568 | 0.22342 | 347 ft | 5 kts | 314° |
| 2026-04-23 00:08 | 51.87608 | 0.22282 | 357 ft | 12 kts | 327° |
| 2026-04-23 00:08 | 51.87700 | 0.22284 | 348 ft | 14 kts | 31° |
| 2026-04-23 00:08 | 51.87735 | 0.22332 | 344 ft | 5 kts | 43° |
| 2026-04-23 00:09 | 51.87787 | 0.22410 | 353 ft | 21 kts | 43° |
| 2026-04-23 00:09 | 51.88095 | 0.22876 | 356 ft | 99 kts | 42° |
| 2026-04-23 00:09 | 51.88763 | 0.23879 | 361 ft | 160 kts | 44° |
| 2026-04-23 00:09 | 51.89626 | 0.25155 | 974 ft | 170 kts | 43° |
| 2026-04-23 00:10 | 51.90482 | 0.26440 | 1932 ft | 173 kts | 49° |
| 2026-04-23 00:10 | 51.91295 | 0.27889 | 2694 ft | 172 kts | 67° |
| 2026-04-23 00:10 | 51.91606 | 0.29799 | 3308 ft | 185 kts | 93° |
| 2026-04-23 00:10 | 51.91315 | 0.31864 | 3994 ft | 196 kts | 112° |
| 2026-04-23 00:11 | 51.90792 | 0.33917 | 4746 ft | 196 kts | 113° |
| 2026-04-23 00:11 | 51.90266 | 0.35904 | 4790 ft | 196 kts | 114° |
| 2026-04-23 00:11 | 51.89681 | 0.38037 | 5013 ft | 219 kts | 114° |
| 2026-04-23 00:11 | 51.89024 | 0.40387 | 5442 ft | 239 kts | 115° |
| 2026-04-23 00:12 | 51.88300 | 0.42920 | 5851 ft | 254 kts | 115° |
| 2026-04-23 00:12 | 51.87550 | 0.45520 | 5973 ft | 256 kts | 116° |
| 2026-04-23 00:12 | 51.86793 | 0.48120 | 5992 ft | 255 kts | 116° |
| 2026-04-23 00:12 | 51.86029 | 0.50739 | 6179 ft | 259 kts | 116° |
| 2026-04-23 00:13 | 51.85257 | 0.53371 | 7048 ft | 259 kts | 116° |
| 2026-04-23 00:13 | 51.84479 | 0.56024 | 7780 ft | 264 kts | 116° |
| 2026-04-23 00:13 | 51.83698 | 0.58679 | 8525 ft | 267 kts | 116° |
| 2026-04-23 00:13 | 51.83087 | 0.61526 | 9267 ft | 271 kts | 98° |
| 2026-04-23 00:14 | 51.83074 | 0.64589 | 10028 ft | 276 kts | 89° |
| 2026-04-23 00:14 | 51.83152 | 0.67716 | 10693 ft | 282 kts | 88° |
| 2026-04-23 00:14 | 51.83254 | 0.70983 | 11038 ft | 300 kts | 88° |
| 2026-04-23 00:14 | 51.83370 | 0.74427 | 11489 ft | 313 kts | 88° |
| 2026-04-23 00:15 | 51.83498 | 0.77969 | 12190 ft | 317 kts | 88° |
| 2026-04-23 00:15 | 51.83629 | 0.81494 | 12943 ft | 321 kts | 88° |
| 2026-04-23 00:15 | 51.83764 | 0.85114 | 13720 ft | 325 kts | 88° |
| 2026-04-23 00:15 | 51.83901 | 0.88781 | 14471 ft | 329 kts | 88° |
| 2026-04-23 00:16 | 51.84040 | 0.92487 | 15208 ft | 332 kts | 88° |
| 2026-04-23 00:16 | 51.84179 | 0.96236 | 15955 ft | 335 kts | 88° |
| 2026-04-23 00:16 | 51.84318 | 1.00014 | 16699 ft | 338 kts | 87° |
| 2026-04-23 00:16 | 51.84457 | 1.03821 | 17437 ft | 341 kts | 86° |
| 2026-04-23 00:17 | 51.84595 | 1.07666 | 18123 ft | 344 kts | 86° |
| 2026-04-23 00:17 | 51.84734 | 1.11547 | 18817 ft | 347 kts | 86° |
| 2026-04-23 00:17 | 51.85116 | 1.15352 | 19348 ft | 350 kts | 70° |
| 2026-04-23 00:17 | 51.86053 | 1.18996 | 19928 ft | 353 kts | 67° |
| 2026-04-23 00:18 | 51.87012 | 1.22668 | 20493 ft | 356 kts | 67° |
| 2026-04-23 00:18 | 51.87994 | 1.26371 | 21036 ft | 359 kts | 66° |
| 2026-04-23 00:18 | 51.88988 | 1.30093 | 21626 ft | 362 kts | 66° |
| 2026-04-23 00:18 | 51.89994 | 1.33848 | 22180 ft | 365 kts | 66° |
| 2026-04-23 00:19 | 51.91010 | 1.37640 | 22743 ft | 368 kts | 65° |
| 2026-04-23 00:19 | 51.92031 | 1.41456 | 23303 ft | 371 kts | 65° |
| 2026-04-23 00:19 | 51.93048 | 1.45260 | 23836 ft | 375 kts | 65° |
| 2026-04-23 00:19 | 51.94084 | 1.49140 | 24387 ft | 376 kts | 64° |
| 2026-04-23 00:20 | 51.95120 | 1.53030 | 24934 ft | 376 kts | 64° |
| 2026-04-23 00:20 | 51.96162 | 1.56947 | 25352 ft | 380 kts | 64° |
| 2026-04-23 00:20 | 51.97209 | 1.60891 | 25813 ft | 383 kts | 64° |
| 2026-04-23 00:20 | 51.98265 | 1.64873 | 26250 ft | 386 kts | 63° |
| 2026-04-23 00:21 | 51.99385 | 1.68835 | 26677 ft | 386 kts | 57° |
| 2026-04-23 00:21 | 52.00693 | 1.72657 | 27096 ft | 389 kts | 57° |
| 2026-04-23 00:21 | 52.01992 | 1.76534 | 27526 ft | 392 kts | 57° |
| 2026-04-23 00:21 | 52.03270 | 1.80392 | 27951 ft | 394 kts | 57° |
| 2026-04-23 00:22 | 52.04566 | 1.84334 | 28374 ft | 397 kts | 57° |
| 2026-04-23 00:22 | 52.05868 | 1.88305 | 28775 ft | 400 kts | 57° |
| 2026-04-23 00:22 | 52.07178 | 1.92314 | 29175 ft | 403 kts | 57° |
| 2026-04-23 00:22 | 52.08505 | 1.96335 | 29590 ft | 405 kts | 57° |
| 2026-04-23 00:23 | 52.09844 | 2.00381 | 29979 ft | 408 kts | 57° |
| 2026-04-23 00:23 | 52.11192 | 2.04461 | 30339 ft | 411 kts | 57° |
| 2026-04-23 00:23 | 52.12545 | 2.08568 | 30670 ft | 413 kts | 57° |
| 2026-04-23 00:23 | 52.13887 | 2.12649 | 30974 ft | 416 kts | 57° |
| 2026-04-23 00:24 | 52.15250 | 2.16801 | 31278 ft | 418 kts | 57° |
| 2026-04-23 00:24 | 52.16626 | 2.20995 | 31587 ft | 420 kts | 58° |
| 2026-04-23 00:24 | 52.18004 | 2.25205 | 31902 ft | 423 kts | 58° |
| 2026-04-23 00:24 | 52.19390 | 2.29448 | 32196 ft | 425 kts | 58° |
| 2026-04-23 00:25 | 52.20781 | 2.33713 | 32496 ft | 427 kts | 58° |
| 2026-04-23 00:25 | 52.22181 | 2.38008 | 32783 ft | 430 kts | 58° |
| 2026-04-23 00:25 | 52.23580 | 2.42314 | 33071 ft | 432 kts | 58° |
| 2026-04-23 00:25 | 52.24973 | 2.46607 | 33355 ft | 434 kts | 58° |
| 2026-04-23 00:26 | 52.26389 | 2.50975 | 33672 ft | 436 kts | 60° |
| 2026-04-23 00:26 | 52.27801 | 2.55343 | 34033 ft | 436 kts | 60° |
| 2026-04-23 00:26 | 52.29216 | 2.59726 | 34424 ft | 435 kts | 60° |
| 2026-04-23 00:26 | 52.30591 | 2.64122 | 34740 ft | 436 kts | 66° |
| 2026-04-23 00:27 | 52.31490 | 2.68858 | 35050 ft | 437 kts | 72° |
| 2026-04-23 00:27 | 52.32338 | 2.73618 | 35336 ft | 437 kts | 72° |
| 2026-04-23 00:27 | 52.33190 | 2.78384 | 35616 ft | 437 kts | 72° |
| 2026-04-23 00:27 | 52.34021 | 2.83096 | 35932 ft | 436 kts | 72° |
| 2026-04-23 00:28 | 52.34858 | 2.87863 | 36232 ft | 436 kts | 72° |
| 2026-04-23 00:28 | 52.35693 | 2.92638 | 36525 ft | 436 kts | 72° |
| 2026-04-23 00:28 | 52.36524 | 2.97405 | 36806 ft | 436 kts | 72° |
| 2026-04-23 00:28 | 52.37353 | 3.02170 | 37111 ft | 435 kts | 73° |
| 2026-04-23 00:29 | 52.38175 | 3.06909 | 37441 ft | 433 kts | 73° |
| 2026-04-23 00:29 | 52.38998 | 3.11661 | 37679 ft | 433 kts | 73° |
| 2026-04-23 00:29 | 52.39817 | 3.16406 | 37961 ft | 432 kts | 73° |
| 2026-04-23 00:29 | 52.40632 | 3.21150 | 38164 ft | 433 kts | 73° |
| 2026-04-23 00:30 | 52.41444 | 3.25886 | 38412 ft | 432 kts | 73° |
| 2026-04-23 00:30 | 52.42246 | 3.30568 | 38607 ft | 433 kts | 73° |
| 2026-04-23 00:30 | 52.43054 | 3.35311 | 38856 ft | 432 kts | 73° |
| 2026-04-23 00:30 | 52.43861 | 3.40051 | 39049 ft | 432 kts | 73° |
| 2026-04-23 00:31 | 52.44667 | 3.44803 | 39226 ft | 432 kts | 73° |
| 2026-04-23 00:31 | 52.45470 | 3.49550 | 39391 ft | 432 kts | 73° |
| 2026-04-23 00:31 | 52.46269 | 3.54288 | 39441 ft | 433 kts | 73° |
| 2026-04-23 00:32 | 52.47866 | 3.63794 | 39441 ft | 431 kts | 74° |
| 2026-04-23 00:32 | 52.49438 | 3.73200 | 39445 ft | 431 kts | 74° |
| 2026-04-23 00:33 | 52.51015 | 3.82684 | 39444 ft | 431 kts | 74° |
| 2026-04-23 00:33 | 52.52585 | 3.92183 | 39453 ft | 431 kts | 74° |
| 2026-04-23 00:34 | 52.54147 | 4.01686 | 39456 ft | 431 kts | 75° |
| 2026-04-23 00:34 | 52.55702 | 4.11200 | 39449 ft | 431 kts | 75° |
| 2026-04-23 00:35 | 52.57237 | 4.20642 | 39443 ft | 431 kts | 75° |
| 2026-04-23 00:35 | 52.58776 | 4.30168 | 39442 ft | 431 kts | 75° |
| 2026-04-23 00:36 | 52.60308 | 4.39702 | 39450 ft | 431 kts | 75° |
| 2026-04-23 00:36 | 52.61831 | 4.49229 | 39443 ft | 431 kts | 75° |
| 2026-04-23 00:37 | 52.63339 | 4.58718 | 39441 ft | 431 kts | 75° |
| 2026-04-23 00:37 | 52.64848 | 4.68277 | 39445 ft | 431 kts | 75° |
| 2026-04-23 00:38 | 52.66349 | 4.77832 | 39443 ft | 431 kts | 75° |
| 2026-04-23 00:38 | 52.67842 | 4.87390 | 39445 ft | 430 kts | 76° |
| 2026-04-23 00:39 | 52.69323 | 4.96933 | 39445 ft | 430 kts | 76° |
| 2026-04-23 00:39 | 52.70787 | 5.06418 | 39450 ft | 429 kts | 76° |
| 2026-04-23 00:40 | 52.72254 | 5.15952 | 39443 ft | 429 kts | 76° |
| 2026-04-23 00:40 | 52.73846 | 5.25414 | 39432 ft | 429 kts | 65° |
| 2026-04-23 00:40 | 52.75383 | 5.29616 | 39453 ft | 428 kts | 54° |
| 2026-04-23 00:41 | 52.77135 | 5.33533 | 39444 ft | 432 kts | 54° |
| 2026-04-23 00:41 | 52.80759 | 5.41431 | 39448 ft | 432 kts | 54° |
| 2026-04-23 00:42 | 52.84435 | 5.49289 | 39449 ft | 431 kts | 53° |
| 2026-04-23 00:42 | 52.88111 | 5.57133 | 39453 ft | 431 kts | 54° |
| 2026-04-23 00:43 | 52.91752 | 5.64924 | 39454 ft | 425 kts | 54° |
| 2026-04-23 00:43 | 52.95338 | 5.72617 | 39453 ft | 425 kts | 54° |
| 2026-04-23 00:44 | 52.98943 | 5.80377 | 39451 ft | 425 kts | 55° |
| 2026-04-23 00:44 | 53.02545 | 5.88153 | 39452 ft | 425 kts | 55° |
| 2026-04-23 00:45 | 53.06141 | 5.95938 | 39454 ft | 425 kts | 55° |
| 2026-04-23 00:45 | 53.09707 | 6.03685 | 39451 ft | 424 kts | 55° |
| 2026-04-23 00:46 | 53.13277 | 6.11465 | 39442 ft | 421 kts | 56° |
| 2026-04-23 00:46 | 53.16806 | 6.19178 | 39436 ft | 416 kts | 56° |
| 2026-04-23 00:47 | 53.20306 | 6.26850 | 39447 ft | 416 kts | 56° |
| 2026-04-23 00:47 | 53.23801 | 6.34535 | 39444 ft | 416 kts | 56° |
| 2026-04-23 00:48 | 53.27268 | 6.42182 | 39431 ft | 416 kts | 56° |
| 2026-04-23 00:48 | 53.30753 | 6.49889 | 39438 ft | 416 kts | 56° |
| 2026-04-23 00:49 | 53.34242 | 6.57612 | 39428 ft | 416 kts | 54° |
| 2026-04-23 00:49 | 53.38387 | 6.64340 | 39423 ft | 420 kts | 46° |
| 2026-04-23 00:50 | 53.42678 | 6.70974 | 39434 ft | 420 kts | 46° |
| 2026-04-23 00:50 | 53.46973 | 6.77601 | 39420 ft | 418 kts | 46° |
| 2026-04-23 00:51 | 53.51251 | 6.84216 | 39430 ft | 419 kts | 46° |
| 2026-04-23 00:51 | 53.55534 | 6.90865 | 39405 ft | 418 kts | 47° |
| 2026-04-23 00:52 | 53.59609 | 6.97724 | 39430 ft | 418 kts | 48° |
| 2026-04-23 00:52 | 53.63728 | 7.04648 | 39427 ft | 418 kts | 48° |
| 2026-04-23 00:53 | 53.67838 | 7.11569 | 39418 ft | 418 kts | 49° |
| 2026-04-23 00:53 | 53.71949 | 7.18510 | 39416 ft | 418 kts | 49° |
| 2026-04-23 00:54 | 53.76052 | 7.25459 | 39410 ft | 418 kts | 49° |
| 2026-04-23 00:54 | 53.80123 | 7.32374 | 39406 ft | 418 kts | 49° |
| 2026-04-23 00:55 | 53.84231 | 7.39371 | 39403 ft | 419 kts | 49° |
| 2026-04-23 00:55 | 53.88340 | 7.46391 | 39405 ft | 420 kts | 49° |
| 2026-04-23 00:56 | 53.92442 | 7.53421 | 39402 ft | 419 kts | 49° |
| 2026-04-23 00:56 | 53.96517 | 7.60425 | 39398 ft | 419 kts | 49° |
| 2026-04-23 00:57 | 54.00610 | 7.67480 | 39387 ft | 419 kts | 49° |
| 2026-04-23 00:57 | 54.04709 | 7.74568 | 39403 ft | 421 kts | 49° |
| 2026-04-23 00:58 | 54.08810 | 7.81679 | 39397 ft | 421 kts | 49° |
| 2026-04-23 00:58 | 54.12883 | 7.88764 | 39393 ft | 421 kts | 49° |
| 2026-04-23 00:59 | 54.16972 | 7.95897 | 39393 ft | 421 kts | 49° |
| 2026-04-23 00:59 | 54.21066 | 8.03060 | 39387 ft | 421 kts | 49° |
| 2026-04-23 01:00 | 54.25150 | 8.10229 | 39367 ft | 421 kts | 50° |
| 2026-04-23 01:00 | 54.29196 | 8.17351 | 39372 ft | 421 kts | 50° |
| 2026-04-23 01:01 | 54.33271 | 8.24547 | 39373 ft | 421 kts | 50° |
| 2026-04-23 01:01 | 54.37342 | 8.31755 | 39367 ft | 421 kts | 50° |
| 2026-04-23 01:02 | 54.40721 | 8.37757 | 39363 ft | 421 kts | 50° |
| 2026-04-23 01:02 | 54.45441 | 8.46166 | 39362 ft | 421 kts | 50° |
| 2026-04-23 01:03 | 54.49491 | 8.53405 | 39356 ft | 420 kts | 50° |
| 2026-04-23 01:03 | 54.52857 | 8.59437 | 39356 ft | 420 kts | 50° |
| 2026-04-23 01:04 | 54.56893 | 8.66690 | 39352 ft | 418 kts | 50° |
| 2026-04-23 01:04 | 54.62898 | 8.77524 | 39352 ft | 416 kts | 50° |
| 2026-04-23 01:05 | 54.66892 | 8.84757 | 39343 ft | 416 kts | 50° |
| 2026-04-23 01:05 | 54.70857 | 8.91959 | 39339 ft | 415 kts | 50° |
| 2026-04-23 01:06 | 54.74822 | 8.99182 | 39333 ft | 414 kts | 50° |
| 2026-04-23 01:06 | 54.78783 | 9.06415 | 39334 ft | 414 kts | 50° |
| 2026-04-23 01:07 | 54.82742 | 9.13667 | 39319 ft | 414 kts | 50° |
| 2026-04-23 01:07 | 54.86636 | 9.21009 | 39314 ft | 413 kts | 52° |
| 2026-04-23 01:08 | 54.88533 | 9.24760 | 39190 ft | 414 kts | 52° |
| 2026-04-23 01:08 | 54.90405 | 9.28447 | 38989 ft | 411 kts | 52° |
| 2026-04-23 01:08 | 54.92293 | 9.32156 | 38721 ft | 407 kts | 52° |
| 2026-04-23 01:08 | 54.94156 | 9.35827 | 38455 ft | 403 kts | 52° |
| 2026-04-23 01:09 | 54.96003 | 9.39467 | 38198 ft | 401 kts | 52° |
| 2026-04-23 01:09 | 54.97845 | 9.43105 | 37937 ft | 398 kts | 52° |
| 2026-04-23 01:09 | 54.99657 | 9.46688 | 37440 ft | 393 kts | 52° |
| 2026-04-23 01:09 | 55.01465 | 9.50269 | 36788 ft | 394 kts | 52° |
| 2026-04-23 01:10 | 55.03242 | 9.53792 | 36234 ft | 392 kts | 52° |
| 2026-04-23 01:10 | 55.05035 | 9.57352 | 35775 ft | 389 kts | 51° |
| 2026-04-23 01:10 | 55.06808 | 9.60880 | 35351 ft | 384 kts | 51° |
| 2026-04-23 01:10 | 55.08564 | 9.64376 | 34903 ft | 381 kts | 51° |
| 2026-04-23 01:11 | 55.10199 | 9.67971 | 34407 ft | 376 kts | 62° |
| 2026-04-23 01:11 | 55.11195 | 9.72163 | 33824 ft | 373 kts | 73° |
| 2026-04-23 01:11 | 55.12011 | 9.76434 | 33391 ft | 369 kts | 72° |
| 2026-04-23 01:11 | 55.12813 | 9.80666 | 33008 ft | 364 kts | 72° |
| 2026-04-23 01:12 | 55.13585 | 9.84844 | 32603 ft | 359 kts | 72° |
| 2026-04-23 01:12 | 55.14326 | 9.88926 | 32220 ft | 355 kts | 72° |
| 2026-04-23 01:12 | 55.15062 | 9.93028 | 31846 ft | 352 kts | 72° |
| 2026-04-23 01:12 | 55.15786 | 9.97091 | 31479 ft | 348 kts | 72° |
| 2026-04-23 01:13 | 55.16501 | 10.01118 | 31080 ft | 345 kts | 72° |
| 2026-04-23 01:13 | 55.17208 | 10.05112 | 30706 ft | 342 kts | 72° |
| 2026-04-23 01:13 | 55.17908 | 10.09076 | 30328 ft | 339 kts | 72° |
| 2026-04-23 01:13 | 55.18600 | 10.13003 | 29908 ft | 337 kts | 72° |
| 2026-04-23 01:14 | 55.19286 | 10.16902 | 29519 ft | 336 kts | 72° |
| 2026-04-23 01:14 | 55.19969 | 10.20795 | 29166 ft | 341 kts | 72° |
| 2026-04-23 01:14 | 55.20670 | 10.24801 | 28795 ft | 345 kts | 72° |
| 2026-04-23 01:14 | 55.21372 | 10.28820 | 28430 ft | 345 kts | 72° |
| 2026-04-23 01:15 | 55.22072 | 10.32836 | 28051 ft | 345 kts | 72° |
| 2026-04-23 01:15 | 55.22770 | 10.36848 | 27691 ft | 343 kts | 72° |
| 2026-04-23 01:15 | 55.23463 | 10.40842 | 27334 ft | 342 kts | 72° |
| 2026-04-23 01:15 | 55.24153 | 10.44829 | 26971 ft | 341 kts | 72° |
| 2026-04-23 01:16 | 55.24839 | 10.48798 | 26617 ft | 340 kts | 72° |
| 2026-04-23 01:16 | 55.25521 | 10.52756 | 26268 ft | 339 kts | 72° |
| 2026-04-23 01:16 | 55.26200 | 10.56703 | 25915 ft | 338 kts | 72° |
| 2026-04-23 01:16 | 55.26867 | 10.60584 | 25574 ft | 337 kts | 72° |
| 2026-04-23 01:17 | 55.27540 | 10.64502 | 25224 ft | 336 kts | 72° |
| 2026-04-23 01:17 | 55.28215 | 10.68427 | 24826 ft | 336 kts | 72° |
| 2026-04-23 01:17 | 55.28887 | 10.72339 | 24495 ft | 333 kts | 72° |
| 2026-04-23 01:17 | 55.29553 | 10.76224 | 24160 ft | 331 kts | 72° |
| 2026-04-23 01:18 | 55.30213 | 10.80085 | 23811 ft | 329 kts | 72° |
| 2026-04-23 01:18 | 55.30870 | 10.83931 | 23415 ft | 328 kts | 71° |
| 2026-04-23 01:18 | 55.31510 | 10.87689 | 23068 ft | 324 kts | 71° |
| 2026-04-23 01:18 | 55.32152 | 10.91466 | 22733 ft | 321 kts | 71° |
| 2026-04-23 01:19 | 55.32786 | 10.95203 | 22387 ft | 318 kts | 72° |
| 2026-04-23 01:19 | 55.33405 | 10.98908 | 22034 ft | 316 kts | 72° |
| 2026-04-23 01:19 | 55.34018 | 11.02587 | 21729 ft | 312 kts | 71° |
| 2026-04-23 01:19 | 55.34622 | 11.06217 | 21429 ft | 308 kts | 71° |
| 2026-04-23 01:20 | 55.35223 | 11.09831 | 21117 ft | 309 kts | 71° |
| 2026-04-23 01:20 | 55.35830 | 11.13490 | 20803 ft | 314 kts | 71° |
| 2026-04-23 01:20 | 55.36442 | 11.17193 | 20475 ft | 317 kts | 71° |
| 2026-04-23 01:20 | 55.37048 | 11.20866 | 20148 ft | 317 kts | 71° |
| 2026-04-23 01:21 | 55.37660 | 11.24579 | 19816 ft | 315 kts | 71° |
| 2026-04-23 01:21 | 55.38265 | 11.28261 | 19493 ft | 313 kts | 71° |
| 2026-04-23 01:21 | 55.38866 | 11.31926 | 19172 ft | 311 kts | 71° |
| 2026-04-23 01:21 | 55.39462 | 11.35563 | 18855 ft | 309 kts | 71° |
| 2026-04-23 01:22 | 55.40053 | 11.39184 | 18523 ft | 307 kts | 71° |
| 2026-04-23 01:22 | 55.40640 | 11.42783 | 18167 ft | 305 kts | 71° |
| 2026-04-23 01:22 | 55.41221 | 11.46357 | 17833 ft | 303 kts | 71° |
| 2026-04-23 01:22 | 55.41796 | 11.49899 | 17517 ft | 299 kts | 71° |
| 2026-04-23 01:23 | 55.42357 | 11.53365 | 17209 ft | 297 kts | 70° |
| 2026-04-23 01:23 | 55.42919 | 11.56838 | 16900 ft | 294 kts | 70° |
| 2026-04-23 01:23 | 55.43483 | 11.60292 | 16584 ft | 295 kts | 68° |
| 2026-04-23 01:23 | 55.44451 | 11.63433 | 16167 ft | 291 kts | 45° |
| 2026-04-23 01:24 | 55.45882 | 11.65897 | 15886 ft | 285 kts | 40° |
| 2026-04-23 01:24 | 55.47322 | 11.68271 | 15591 ft | 282 kts | 40° |
| 2026-04-23 01:24 | 55.48764 | 11.70595 | 15294 ft | 280 kts | 39° |
| 2026-04-23 01:24 | 55.50203 | 11.72890 | 14989 ft | 278 kts | 39° |
| 2026-04-23 01:25 | 55.51624 | 11.75141 | 14702 ft | 281 kts | 39° |
| 2026-04-23 01:25 | 55.53089 | 11.77453 | 14406 ft | 285 kts | 38° |
| 2026-04-23 01:25 | 55.54578 | 11.79795 | 14072 ft | 286 kts | 38° |
| 2026-04-23 01:25 | 55.56066 | 11.82136 | 13703 ft | 287 kts | 38° |
| 2026-04-23 01:26 | 55.57551 | 11.84473 | 13338 ft | 286 kts | 38° |
| 2026-04-23 01:26 | 55.59031 | 11.86804 | 13023 ft | 283 kts | 38° |
| 2026-04-23 01:26 | 55.60494 | 11.89110 | 12711 ft | 281 kts | 38° |
| 2026-04-23 01:26 | 55.61945 | 11.91398 | 12397 ft | 278 kts | 37° |
| 2026-04-23 01:27 | 55.63385 | 11.93672 | 12085 ft | 276 kts | 37° |
| 2026-04-23 01:27 | 55.64795 | 11.95901 | 11787 ft | 274 kts | 37° |
| 2026-04-23 01:27 | 55.66207 | 11.98137 | 11521 ft | 271 kts | 37° |
| 2026-04-23 01:27 | 55.67604 | 12.00352 | 11251 ft | 268 kts | 37° |
| 2026-04-23 01:28 | 55.68990 | 12.02550 | 10943 ft | 267 kts | 37° |
| 2026-04-23 01:28 | 55.70372 | 12.04742 | 10635 ft | 266 kts | 37° |
| 2026-04-23 01:28 | 55.71748 | 12.06930 | 10326 ft | 265 kts | 37° |
| 2026-04-23 01:28 | 55.73075 | 12.09194 | 9999 ft | 268 kts | 47° |
| 2026-04-23 01:29 | 55.73895 | 12.12180 | 9624 ft | 278 kts | 68° |
| 2026-04-23 01:29 | 55.74433 | 12.15462 | 9334 ft | 275 kts | 68° |
| 2026-04-23 01:29 | 55.74959 | 12.18707 | 9043 ft | 272 kts | 68° |
| 2026-04-23 01:29 | 55.75472 | 12.21922 | 8743 ft | 270 kts | 69° |
| 2026-04-23 01:30 | 55.75976 | 12.25126 | 8448 ft | 269 kts | 69° |
| 2026-04-23 01:30 | 55.76474 | 12.28316 | 8151 ft | 267 kts | 69° |
| 2026-04-23 01:30 | 55.76965 | 12.31480 | 7868 ft | 265 kts | 69° |
| 2026-04-23 01:30 | 55.77453 | 12.34635 | 7572 ft | 264 kts | 69° |
| 2026-04-23 01:31 | 55.77937 | 12.37770 | 7272 ft | 263 kts | 69° |
| 2026-04-23 01:31 | 55.78418 | 12.40895 | 6999 ft | 261 kts | 69° |
| 2026-04-23 01:31 | 55.78888 | 12.43956 | 6712 ft | 260 kts | 69° |
| 2026-04-23 01:31 | 55.79363 | 12.47051 | 6422 ft | 259 kts | 69° |
| 2026-04-23 01:32 | 55.79836 | 12.50136 | 6113 ft | 258 kts | 69° |
| 2026-04-23 01:32 | 55.80305 | 12.53209 | 5815 ft | 258 kts | 69° |
| 2026-04-23 01:32 | 55.80773 | 12.56278 | 5495 ft | 257 kts | 69° |
| 2026-04-23 01:32 | 55.81242 | 12.59354 | 5119 ft | 259 kts | 70° |
| 2026-04-23 01:33 | 55.81714 | 12.62453 | 4769 ft | 260 kts | 70° |
| 2026-04-23 01:33 | 55.82181 | 12.65540 | 4460 ft | 258 kts | 70° |
| 2026-04-23 01:33 | 55.82648 | 12.68637 | 4142 ft | 258 kts | 71° |
| 2026-04-23 01:33 | 55.83099 | 12.71626 | 4010 ft | 250 kts | 71° |
| 2026-04-23 01:34 | 55.83542 | 12.74558 | 3854 ft | 243 kts | 71° |
| 2026-04-23 01:34 | 55.83875 | 12.77512 | 3523 ft | 247 kts | 87° |
| 2026-04-23 01:34 | 55.83392 | 12.80388 | 3438 ft | 244 kts | 118° |
| 2026-04-23 01:34 | 55.82326 | 12.82672 | 3374 ft | 234 kts | 127° |
| 2026-04-23 01:35 | 55.81267 | 12.84794 | 3280 ft | 224 kts | 127° |
| 2026-04-23 01:35 | 55.80263 | 12.86814 | 3202 ft | 212 kts | 127° |
| 2026-04-23 01:35 | 55.79210 | 12.88572 | 3060 ft | 208 kts | 148° |
| 2026-04-23 01:35 | 55.77841 | 12.89083 | 2966 ft | 199 kts | 185° |
| 2026-04-23 01:36 | 55.76617 | 12.88287 | 2784 ft | 189 kts | 216° |
| 2026-04-23 01:36 | 55.75576 | 12.86852 | 2426 ft | 190 kts | 222° |
| 2026-04-23 01:36 | 55.74569 | 12.85348 | 2131 ft | 188 kts | 223° |
| 2026-04-23 01:36 | 55.73576 | 12.83842 | 1973 ft | 188 kts | 224° |
| 2026-04-23 01:37 | 55.72583 | 12.82320 | 1956 ft | 189 kts | 224° |
| 2026-04-23 01:37 | 55.71599 | 12.80805 | 1999 ft | 184 kts | 224° |
| 2026-04-23 01:37 | 55.70652 | 12.79358 | 1991 ft | 174 kts | 224° |
| 2026-04-23 01:37 | 55.69765 | 12.77977 | 1879 ft | 170 kts | 225° |
| 2026-04-23 01:38 | 55.68888 | 12.76608 | 1691 ft | 168 kts | 225° |
| 2026-04-23 01:38 | 55.68016 | 12.75257 | 1458 ft | 164 kts | 226° |
| 2026-04-23 01:38 | 55.67166 | 12.73934 | 1248 ft | 161 kts | 226° |
| 2026-04-23 01:38 | 55.66331 | 12.72639 | 1036 ft | 159 kts | 227° |
| 2026-04-23 01:39 | 55.65509 | 12.71361 | 811 ft | 155 kts | 227° |
| 2026-04-23 01:39 | 55.64709 | 12.70120 | 614 ft | 150 kts | 227° |
| 2026-04-23 01:39 | 55.63939 | 12.68922 | 411 ft | 146 kts | 226° |
| 2026-04-23 01:39 | 55.63181 | 12.67742 | 215 ft | 144 kts | 226° |
| 2026-04-23 01:40 | 55.62431 | 12.66599 | 36 ft | 140 kts | 226° |
| 2026-04-23 01:40 | 55.61847 | 12.65681 | 21 ft | 79 kts | 221° |
| 2026-04-23 01:40 | 55.61609 | 12.65262 | 18 ft | 34 kts | 253° |
| 2026-04-23 01:40 | 55.61627 | 12.64993 | 21 ft | 11 kts | 298° |
| 2026-04-23 01:41 | 55.61662 | 12.64915 | 21 ft | 7 kts | 312° |
| 2026-04-23 01:41 | 55.61701 | 12.64848 | 19 ft | 9 kts | 322° |
| 2026-04-23 01:41 | 55.61753 | 12.64798 | 19 ft | 6 kts | 343° |
| 2026-04-23 01:41 | 55.61805 | 12.64782 | 19 ft | 9 kts | 358° |
| 2026-04-23 01:42 | 55.61876 | 12.64803 | 19 ft | 12 kts | 21° |
| 2026-04-23 01:42 | 55.61935 | 12.64867 | 20 ft | 2 kts | 33° |
| 2026-04-23 01:42 | 55.61936 | 12.64868 | 19 ft | 0 kts | 33° |
| 2026-04-23 01:43 | 55.61946 | 12.64880 | 20 ft | 3 kts | 33° |
| 2026-04-23 01:43 | 55.61973 | 12.64912 | 19 ft | 6 kts | 33° |
| 2026-04-23 01:44 | 55.62014 | 12.64959 | 22 ft | 8 kts | 33° |
| 2026-04-23 01:44 | 55.62069 | 12.65022 | 20 ft | 11 kts | 33° |
| 2026-04-23 01:44 | 55.62115 | 12.65075 | 21 ft | 7 kts | 33° |
| 2026-04-23 01:44 | 55.62135 | 12.65097 | 21 ft | 3 kts | 33° |
| 2026-04-23 01:45 | 55.62164 | 12.65131 | 21 ft | 7 kts | 33° |
| 2026-04-23 01:45 | 55.62211 | 12.65184 | 20 ft | 6 kts | 32° |
| 2026-04-23 01:45 | 55.62235 | 12.65197 | 19 ft | 5 kts | 8° |
| 2026-04-23 01:45 | 55.62243 | 12.65197 | 19 ft | 0 kts | 0° |
| 2026-04-23 01:46 | 55.62251 | 12.65198 | 19 ft | 3 kts | 0° |
| 2026-04-23 01:47 | 55.62279 | 12.65204 | 19 ft | 5 kts | 27° |
| 2026-04-23 01:47 | 55.62292 | 12.65270 | 19 ft | 7 kts | 88° |
| 2026-04-23 01:47 | 55.62321 | 12.65334 | 21 ft | 8 kts | 8° |
| 2026-04-23 01:47 | 55.62386 | 12.65331 | 19 ft | 11 kts | 358° |
| 2026-04-23 01:48 | 55.62434 | 12.65364 | 20 ft | 8 kts | 64° |
| 2026-04-23 01:48 | 55.62440 | 12.65476 | 19 ft | 11 kts | 88° |
| 2026-04-23 01:48 | 55.62441 | 12.65604 | 19 ft | 11 kts | 89° |
| 2026-04-23 01:48 | 55.62442 | 12.65704 | 19 ft | 2 kts | 89° |
| 2026-04-23 01:49 | 55.62444 | 12.65749 | 19 ft | 5 kts | 73° |
| 2026-04-23 01:49 | 55.62473 | 12.65764 | 19 ft | 6 kts | 359° |
| 2026-04-23 01:49 | 55.62506 | 12.65762 | 19 ft | 2 kts | 358° |
| 2026-04-23 01:49 | 55.62515 | 12.65762 | 19 ft | 0 kts | 359° |